Share

Ailey, GA

Vidalia Municipal (KVDI) Elev 276 ft | 32.19 °N, 82.37 °W | Change Station
Active Advisory: Flood Warning

Current weather conditions updated 12 minutes ago

Mostly Cloudy
Mostly Cloudy
63 °F
Feels Like 63 °F
N
6
Wind Variable Wind from ENE
Sunrise 6:55 AM
Sunset 8:02 PM
Moon Waning Gibbous

Tomorrow is forecast to be Warmer than today.

Pressure 30.15 in
Visibility 10.0 miles
Clouds Mostly Cloudy 5000 ft
Dew Point 52 °F
Humidity 68%
Rainfall 0.00 in
Snow Depth Not available.
UV 0 out of 16
Pollen 9.00 out of 12
Air Quality Not available.
Flu Activity Sporadic
METAR KVDI 210235Z AUTO 06005KT 10SM BKN050 17/11 A3015 RMK AO2

More Conditions Fewer Conditions

Pressure 30.15 in
Visibility 10.0 miles
Clouds Mostly Cloudy 5000 ft
Dew Point 52 °F
Humidity 68%
Rainfall 0.00 in
Snow Depth Not available.
UV 0 out of 16
Pollen 9.00 out of 12
Air Quality Not available.
Flu Activity Sporadic
METAR KVDI 210235Z AUTO 06005KT 10SM BKN050 17/11 A3015 RMK AO2

More Conditions Fewer Conditions

10-Day Weather Forecast

Almanac

Astronomy

Apr. 20, 2014 Rise Set
Actual Time 6:55 AM EDT 8:02 PM EDT
Civil Twilight 6:29 AM EDT 8:28 PM EDT
Nautical Twilight 5:59 AM EDT 8:58 PM EDT
Astronomical Twilight 5:28 AM EDT 9:29 PM EDT
Moon 12:34 AM EDT (4/20) 11:21 AM EDT (4/20)
Length of Visible Light 13h 58m
Length of Day
13h 07m
Tomorrow will be 1m 49s longer.
Waning Gibbous, 64% of the Moon is Illuminated
Today
Waning Gibbous
Apr 22
Last Quarter
Apr 29
New
May 6
First Quarter
May 14
Full

Today's Extremes

State Highs State Lows

Community

  • Sun Pillar and Geese
    Sun Pillar and Geese
  • Showers on the Way
    Showers on the Way
  • Easter Morning Fog
    Easter Morning Fog
  • Easter Dance
    Easter Dance
  • spring skiing mount Baker WA
    spring skiing mount Baker WA

WunderPhotos

Upload Photos

1,703,523 photos uploaded!

WunderBlogs® & News

Nearby

Snow Depth

Station Depth Elevation
No new snow has been reported.

Coastal Water Temperatures

Place Temperature
No Stations Reporting

Earthquake Activity

City Distance Mag. Time & Date
No recent earthquake activity has been reported nearby.
Minimum magnitude displayed is 2.5.

Nearby Weather Stations

Station Location Temp. Dew Point Humidity Wind Precip. Elev Updated Type
South Treutlen Co., Soperton, GA 57.6 °F 55 °F 91% North  at  0.0 mph 0.00 in / hr 236 ft 10:46 PM EDT Rapid Fire
RAWS MCRAE GA, McRae, GA 58 °F 55 °F 91% NE  at  4 mph 0.00 in / hr 201 ft 10:03 PM EDT MADIS

Show More Stations Show Fewer Stations

What do you think?

We're not finished. Please let us know what you like, what you don't like, and what you are still missing.